Řízení letového provozu České republiky
Letiste: LKPR Aktualizace: 18.01.2018 23:08:15  UTC
 METAR LKPR 18.01. 23:00 ...
METAR LKPR 182300Z 24013KT 9999 FEW040 02/M03 Q1000 NOSIG RMK REG QNH 0993=
 TAF LKPR 18.01. 17:00 ...
TAF LKPR 181700Z 1818/2000 24018KT 9999 SCT020      PROB40 TEMPO 1818/1820 27028G40KT      BECMG 1900/1901 27014KT      TEMPO 1901/2000 27016G26KT      TEMPO 1818/2000 4000 SHSNRA BKN009      PROB30 TEMPO 1909/1917 SCT007TCU=